createdAt,value
2022-11-23T00:04:25.841Z,33.75
2022-11-23T00:09:26.684Z,41.67
2022-11-23T00:14:27.514Z,45.63
2022-11-23T00:19:29.749Z,41.92
2022-11-23T00:24:30.757Z,41.55
2022-11-23T00:29:31.797Z,40.38
2022-11-23T00:34:34.104Z,38.60
2022-11-23T00:39:34.867Z,42.33
2022-11-23T00:44:35.656Z,41.10
2022-11-23T00:49:37.784Z,38.67
2022-11-23T00:54:38.641Z,41.08
2022-11-23T00:59:40.840Z,40.13
2022-11-23T01:04:43.002Z,36.83
2022-11-23T01:09:43.769Z,38.85
2022-11-23T01:14:46.592Z,40.90
2022-11-23T01:19:48.733Z,39.78
2022-11-23T01:24:51.367Z,38.67
2022-11-23T01:29:52.140Z,37.40
2022-11-23T01:34:55.300Z,35.33
2022-11-23T01:39:56.055Z,40.65
2022-11-23T01:45:39.367Z,38.50
2022-11-23T01:50:43.161Z,38.10
2022-11-23T01:55:44.492Z,36.15
2022-11-23T02:00:46.100Z,40.25
2022-11-23T02:05:54.283Z,41.13
2022-11-23T02:10:56.760Z,38.63
2022-11-23T02:15:59.891Z,47.72
2022-11-23T02:21:04.103Z,43.92
2022-11-23T02:26:10.588Z,40.08
2022-11-23T02:31:12.865Z,46.10
2022-11-23T02:36:35.489Z,40.35
2022-11-23T02:41:42.631Z,40.05
2022-11-23T02:46:43.607Z,35.70
2022-11-23T02:51:44.621Z,47.63
2022-11-23T02:56:46.816Z,40.83
2022-11-23T03:01:47.718Z,42.35
2022-11-23T03:06:48.551Z,46.13
2022-11-23T03:11:50.712Z,41.33
2022-11-23T03:16:51.517Z,40.10
2022-11-23T03:21:53.942Z,44.58
2022-11-23T03:26:56.714Z,50.13
2022-11-23T03:31:57.666Z,40.35
2022-11-23T03:36:58.853Z,44.92
2022-11-23T03:42:01.128Z,41.63
2022-11-23T03:47:06.555Z,41.67
2022-11-23T03:52:09.387Z,44.90
2022-11-23T03:57:11.562Z,42.80
2022-11-23T04:02:12.360Z,37.88
2022-11-23T04:07:21.048Z,42.50
2022-11-23T04:12:26.996Z,49.25
2022-11-23T04:17:27.747Z,37.28
2022-11-23T04:22:28.632Z,45.10
2022-11-23T04:27:30.745Z,40.97
2022-11-23T04:32:31.747Z,39.78
2022-11-23T04:37:33.779Z,46.30
2022-11-23T04:42:36.548Z,44.63
2022-11-23T04:47:37.298Z,40.13
2022-11-23T04:52:43.152Z,47.08
2022-11-23T04:57:52.192Z,46.88
2022-11-23T05:02:53.014Z,43.67
2022-11-23T05:07:59.189Z,47.40
2022-11-23T05:13:12.599Z,48.53
2022-11-23T05:18:13.662Z,39.75
2022-11-23T05:23:14.969Z,41.05
2022-11-23T05:33:45.995Z,45.53
2022-11-23T05:38:48.592Z,49.38
2022-11-23T05:43:58.553Z,45.53
2022-11-23T05:49:02.227Z,42.70
2022-11-23T05:54:07.311Z,51.50
2022-11-23T05:59:16.761Z,46.85
2022-11-23T06:04:22.706Z,48.00
2022-11-23T06:09:23.644Z,41.30
2022-11-23T06:14:28.429Z,49.53
2022-11-23T06:19:31.221Z,44.92
2022-11-23T06:24:32.944Z,46.40
2022-11-23T06:30:00.733Z,48.13
2022-11-23T06:35:03.764Z,43.67
2022-11-23T06:40:10.052Z,38.40
2022-11-23T06:45:13.131Z,46.85
2022-11-23T06:50:14.624Z,45.35
2022-11-23T06:55:17.295Z,49.17
2022-11-23T07:00:20.966Z,48.55
2022-11-23T07:05:22.636Z,40.42
2022-11-23T07:10:23.527Z,47.13
2022-11-23T07:15:30.010Z,46.08
2022-11-23T07:20:30.866Z,44.50
2022-11-23T07:25:32.490Z,48.53
2022-11-23T07:30:37.332Z,51.53
2022-11-23T07:35:40.634Z,47.17
2022-11-23T07:40:42.365Z,49.78
2022-11-23T07:45:58.065Z,50.17
2022-11-23T07:50:58.833Z,39.13
2022-11-23T07:55:59.633Z,49.10
2022-11-23T08:01:01.769Z,44.47
2022-11-23T08:06:02.620Z,46.25
2022-11-23T08:11:03.396Z,36.38
2022-11-23T08:16:05.752Z,42.95
2022-11-23T08:21:06.861Z,43.80
2022-11-23T08:26:13.185Z,36.80
2022-11-23T08:31:15.933Z,44.63
2022-11-23T08:36:16.753Z,48.47
2022-11-23T08:41:20.449Z,45.20
2022-11-23T08:46:22.570Z,38.40
2022-11-23T08:51:23.471Z,41.75
2022-11-23T08:56:24.484Z,40.97
2022-11-23T09:01:26.727Z,42.80
2022-11-23T09:06:29.277Z,39.60
2022-11-23T09:11:30.143Z,41.08
2022-11-23T09:16:34.030Z,44.33
2022-11-23T09:21:36.140Z,38.17
2022-11-23T09:26:37.700Z,41.55
2022-11-23T09:31:40.052Z,37.50
2022-11-23T09:36:42.905Z,40.05
2022-11-23T09:41:54.639Z,32.67
2022-11-23T09:47:12.528Z,41.95
2022-11-23T09:52:19.136Z,37.28
2022-11-23T09:57:22.788Z,36.17
2022-11-23T10:02:28.827Z,38.65
2022-11-23T10:07:43.199Z,30.42
2022-11-23T10:12:52.458Z,30.00
2022-11-23T10:18:19.161Z,30.50
2022-11-23T10:23:35.599Z,32.65
2022-11-23T10:28:37.464Z,27.60
2022-11-23T10:33:44.200Z,25.73
2022-11-23T10:38:45.623Z,27.20
2022-11-23T10:43:52.351Z,29.10
2022-11-23T10:48:55.531Z,29.73
2022-11-23T10:54:04.892Z,30.15
2022-11-23T10:59:06.355Z,31.67
2022-11-23T11:04:25.427Z,27.10
2022-11-23T11:09:26.404Z,27.90
2022-11-23T11:14:27.915Z,29.33
2022-11-23T11:19:32.740Z,28.08
2022-11-23T11:24:38.623Z,23.70
2022-11-23T11:29:49.220Z,25.73
2022-11-23T11:34:57.572Z,24.98
2022-11-23T11:40:04.311Z,21.90
2022-11-23T11:45:12.370Z,25.85
2022-11-23T11:50:21.520Z,22.08
2022-11-23T11:55:26.148Z,25.15
2022-11-23T12:00:29.236Z,19.40
2022-11-23T12:05:38.969Z,21.92
2022-11-23T12:10:47.091Z,23.25
2022-11-23T12:15:52.968Z,20.83
2022-11-23T12:21:01.134Z,24.50
2022-11-23T12:26:13.820Z,21.17
2022-11-23T12:31:24.668Z,21.85
2022-11-23T12:36:55.364Z,20.77
2022-11-23T12:42:05.331Z,23.58
2022-11-23T12:47:16.213Z,25.55
2022-11-23T12:52:30.992Z,21.85
2022-11-23T12:57:39.388Z,29.50
2022-11-23T13:03:11.006Z,28.30
2022-11-23T13:08:37.236Z,26.60
2022-11-23T13:13:54.171Z,36.00
2022-11-23T13:19:09.239Z,35.40
2022-11-23T13:24:27.148Z,36.55
2022-11-23T13:29:48.536Z,34.78
2022-11-23T13:34:51.080Z,34.58
2022-11-23T13:40:04.990Z,33.15
2022-11-23T13:45:24.685Z,36.95
2022-11-23T13:50:27.073Z,35.78
2022-11-23T13:55:35.443Z,39.75
2022-11-23T14:00:47.889Z,36.90
2022-11-23T14:06:00.032Z,41.33
2022-11-23T14:11:10.580Z,38.25
2022-11-23T14:16:18.169Z,41.10
2022-11-23T14:21:27.260Z,36.85
2022-11-23T14:26:36.388Z,39.85
2022-11-23T14:31:44.756Z,40.67
2022-11-23T14:36:55.200Z,43.25
2022-11-23T14:42:02.662Z,41.95
2022-11-23T14:47:05.242Z,43.25
2022-11-23T14:52:06.864Z,39.00
2022-11-23T14:57:13.531Z,37.83
2022-11-23T15:02:18.628Z,42.38
2022-11-23T15:07:23.620Z,34.92
2022-11-23T15:12:28.250Z,40.03
2022-11-23T15:17:29.065Z,34.30
2022-11-23T15:22:31.214Z,42.97
2022-11-23T15:27:33.385Z,39.28
2022-11-23T15:32:35.090Z,32.95
2022-11-23T15:37:43.913Z,37.65
2022-11-23T15:42:48.414Z,40.33
2022-11-23T15:47:49.347Z,39.03
2022-11-23T15:52:50.189Z,40.20
2022-11-23T15:57:55.193Z,35.40
2022-11-23T16:03:22.427Z,43.03
2022-11-23T16:08:26.274Z,38.25
2022-11-23T16:13:39.519Z,49.38
2022-11-23T16:18:45.452Z,44.67
2022-11-23T16:23:50.741Z,41.22
2022-11-23T16:28:58.597Z,42.78
2022-11-23T16:33:59.431Z,47.90
2022-11-23T16:39:05.333Z,45.80
2022-11-23T16:44:08.133Z,46.10
2022-11-23T16:49:16.984Z,53.55
2022-11-23T16:54:23.404Z,46.55
2022-11-23T16:59:30.072Z,48.45
2022-11-23T17:04:31.222Z,49.03
2022-11-23T17:09:32.802Z,48.70
2022-11-23T17:14:45.865Z,51.47
2022-11-23T17:19:48.585Z,51.35
2022-11-23T17:24:52.623Z,52.10
2022-11-23T17:29:58.486Z,52.67
2022-11-23T17:35:00.800Z,53.10
2022-11-23T17:40:02.129Z,49.80
2022-11-23T17:45:04.590Z,46.28
2022-11-23T17:50:07.302Z,49.10
2022-11-23T17:55:09.480Z,53.47
2022-11-23T18:00:17.746Z,54.63
2022-11-23T18:05:21.779Z,52.67
2022-11-23T18:10:23.410Z,52.65
2022-11-23T18:15:25.977Z,52.85
2022-11-23T18:20:26.792Z,52.67
2022-11-23T18:25:27.805Z,59.38
2022-11-23T18:30:30.070Z,60.58
2022-11-23T18:35:30.842Z,51.15
2022-11-23T18:40:31.612Z,57.13
2022-11-23T18:45:33.794Z,55.53
2022-11-23T18:50:34.864Z,61.67
2022-11-23T18:55:35.915Z,55.25
2022-11-23T19:00:38.167Z,57.03
2022-11-23T19:05:39.225Z,65.05
2022-11-23T19:10:40.094Z,65.75
2022-11-23T19:15:42.304Z,57.95
2022-11-23T19:20:43.210Z,64.75
2022-11-23T19:25:44.061Z,64.80
2022-11-23T19:30:46.282Z,71.65
2022-11-23T19:35:47.170Z,71.80
2022-11-23T19:40:55.114Z,69.43
2022-11-23T19:45:57.956Z,66.32
2022-11-23T19:51:00.234Z,60.60
2022-11-23T19:56:02.844Z,58.85
2022-11-23T20:01:06.704Z,75.07
2022-11-23T20:06:10.119Z,69.65
2022-11-23T20:11:13.616Z,67.25
2022-11-23T20:16:17.711Z,66.55
2022-11-23T20:21:20.480Z,64.78
2022-11-23T20:26:21.298Z,64.90
2022-11-23T20:31:25.196Z,65.07
2022-11-23T20:36:27.532Z,64.85
2022-11-23T20:41:31.043Z,65.15
2022-11-23T20:47:00.507Z,57.75
2022-11-23T20:51:56.185Z,64.25
2022-11-23T20:56:59.965Z,67.93
2022-11-23T21:02:02.505Z,62.50
2022-11-23T21:07:03.346Z,64.03
2022-11-23T21:12:21.872Z,58.45
2022-11-23T21:17:24.066Z,68.85
2022-11-23T21:22:24.864Z,63.70
2022-11-23T21:27:28.172Z,72.55
2022-11-23T21:32:30.416Z,62.28
2022-11-23T21:37:31.541Z,56.60
2022-11-23T21:42:32.328Z,68.07
2022-11-23T21:47:35.173Z,71.05
2022-11-23T21:52:35.982Z,63.05
2022-11-23T21:57:36.734Z,67.13
2022-11-23T22:02:38.918Z,61.72
2022-11-23T22:07:39.799Z,63.67
2022-11-23T22:12:40.656Z,66.82
2022-11-23T22:17:42.806Z,62.45
2022-11-23T22:22:43.577Z,63.03
2022-11-23T22:27:44.328Z,59.50
2022-11-23T22:32:46.548Z,60.42
2022-11-23T22:37:47.379Z,68.38
2022-11-23T22:42:48.268Z,57.42
2022-11-23T22:47:50.428Z,57.80
2022-11-23T22:52:51.191Z,66.03
2022-11-23T22:57:51.929Z,68.57
2022-11-23T23:02:56.241Z,62.83
2022-11-23T23:07:57.284Z,74.78
2022-11-23T23:12:58.097Z,66.45
2022-11-23T23:18:00.248Z,64.70
2022-11-23T23:23:00.997Z,57.97
2022-11-23T23:28:01.845Z,65.20
2022-11-23T23:33:03.986Z,62.50
2022-11-23T23:38:04.816Z,65.85
2022-11-23T23:43:05.644Z,62.13
2022-11-23T23:48:07.877Z,62.67
2022-11-23T23:53:08.677Z,65.80
2022-11-23T23:58:09.512Z,63.50
